createdAt,value
2023-05-13T00:02:08.342Z,72.00
2023-05-13T00:04:39.742Z,72.05
2023-05-13T00:07:10.967Z,72.47
2023-05-13T00:09:42.555Z,72.55
2023-05-13T00:12:13.818Z,72.28
2023-05-13T00:14:44.913Z,72.42
2023-05-13T00:17:16.008Z,72.47
2023-05-13T00:19:47.161Z,72.50
2023-05-13T00:22:18.278Z,72.55
2023-05-13T00:24:47.725Z,72.55
2023-05-13T00:27:18.684Z,72.68
2023-05-13T00:29:48.239Z,72.72
2023-05-13T00:32:19.217Z,72.78
2023-05-13T00:34:48.927Z,72.65
2023-05-13T00:37:20.138Z,72.62
2023-05-13T00:39:49.871Z,72.55
2023-05-13T00:42:19.216Z,72.75
2023-05-13T00:44:50.620Z,72.88
2023-05-13T00:47:22.383Z,72.83
2023-05-13T00:49:54.673Z,72.75
2023-05-13T00:52:25.696Z,72.68
2023-05-13T00:54:56.833Z,72.80
2023-05-13T00:57:28.050Z,73.04
2023-05-13T00:59:57.458Z,73.10
2023-05-13T01:02:32.919Z,73.26
2023-05-13T01:05:17.016Z,73.16
2023-05-13T01:07:57.652Z,73.32
2023-05-13T01:10:36.803Z,73.17
2023-05-13T01:13:12.439Z,73.32
2023-05-13T01:15:50.707Z,73.27
2023-05-13T01:18:26.226Z,73.18
2023-05-13T01:20:57.862Z,73.20
2023-05-13T01:23:28.849Z,73.21
2023-05-13T01:26:00.839Z,73.43
2023-05-13T01:28:32.385Z,73.53
2023-05-13T01:31:03.604Z,73.53
2023-05-13T01:33:35.277Z,73.50
2023-05-13T01:36:07.987Z,73.53
2023-05-13T01:38:40.431Z,73.43
2023-05-13T01:41:12.217Z,73.42
2023-05-13T01:43:43.179Z,73.49
2023-05-13T01:46:15.712Z,73.48
2023-05-13T01:48:46.714Z,73.54
2023-05-13T01:51:16.106Z,73.54
2023-05-13T01:53:47.130Z,73.49
2023-05-13T01:56:18.305Z,73.49
2023-05-13T01:58:49.135Z,73.51
2023-05-13T02:01:22.476Z,73.60
2023-05-13T02:03:53.888Z,73.48
2023-05-13T02:06:25.018Z,73.66
2023-05-13T02:08:56.141Z,73.64
2023-05-13T02:11:25.583Z,73.68
2023-05-13T02:13:56.500Z,73.72
2023-05-13T02:16:27.674Z,73.67
2023-05-13T02:18:58.940Z,73.85
2023-05-13T02:21:30.072Z,74.07
2023-05-13T02:24:01.059Z,74.19
2023-05-13T02:26:32.473Z,74.22
2023-05-13T02:29:03.635Z,74.27
2023-05-13T02:31:36.849Z,74.27
2023-05-13T02:34:08.066Z,74.30
2023-05-13T02:36:39.212Z,74.30
2023-05-13T02:39:10.906Z,74.13
2023-05-13T02:41:42.035Z,74.22
2023-05-13T02:44:11.433Z,74.32
2023-05-13T02:46:44.262Z,74.49
2023-05-13T02:49:15.297Z,74.55
2023-05-13T02:51:46.318Z,74.74
2023-05-13T02:54:17.766Z,74.90
2023-05-13T02:56:48.779Z,75.23
2023-05-13T02:59:18.230Z,75.37
2023-05-13T03:01:49.521Z,75.41
2023-05-13T03:04:21.014Z,75.39
2023-05-13T03:06:53.067Z,75.40
2023-05-13T03:09:24.158Z,75.40
2023-05-13T03:11:53.593Z,75.52
2023-05-13T03:14:24.898Z,75.52
2023-05-13T03:16:56.089Z,75.54
2023-05-13T03:19:26.901Z,75.59
2023-05-13T03:21:57.919Z,75.70
2023-05-13T03:24:27.460Z,75.83
2023-05-13T03:26:58.716Z,75.97
2023-05-13T03:29:29.742Z,75.88
2023-05-13T03:31:59.991Z,75.85
2023-05-13T03:34:31.143Z,75.92
2023-05-13T03:37:02.062Z,75.86
2023-05-13T03:39:33.176Z,75.88
2023-05-13T03:42:04.152Z,75.99
2023-05-13T03:44:35.352Z,75.99
2023-05-13T03:47:04.981Z,76.18
2023-05-13T03:49:36.016Z,76.17
2023-05-13T03:52:08.993Z,76.31
2023-05-13T03:54:40.040Z,76.21
2023-05-13T03:57:11.321Z,76.15
2023-05-13T03:59:42.507Z,76.07
2023-05-13T04:02:13.545Z,76.22
2023-05-13T04:04:44.873Z,76.35
2023-05-13T04:07:14.256Z,76.29
2023-05-13T04:09:45.630Z,76.27
2023-05-13T04:12:18.182Z,76.37
2023-05-13T04:14:49.116Z,76.24
2023-05-13T04:17:20.142Z,75.90
2023-05-13T04:19:53.470Z,75.71
2023-05-13T04:22:25.569Z,75.61
2023-05-13T04:24:57.272Z,75.39
2023-05-13T04:27:28.355Z,75.21
2023-05-13T04:29:59.924Z,74.91
2023-05-13T04:32:31.468Z,74.72
2023-05-13T04:35:00.967Z,74.42
2023-05-13T04:37:33.128Z,74.26
2023-05-13T04:40:02.544Z,74.15
2023-05-13T04:42:33.718Z,73.77
2023-05-13T04:45:05.040Z,73.57
2023-05-13T04:47:38.173Z,73.25
2023-05-13T04:50:10.729Z,72.76
2023-05-13T04:52:43.151Z,72.32
2023-05-13T04:55:14.547Z,71.83
2023-05-13T04:57:45.561Z,71.53
2023-05-13T05:00:18.749Z,71.43
2023-05-13T05:02:49.771Z,70.98
2023-05-13T05:05:19.237Z,70.93
2023-05-13T05:07:50.249Z,70.79
2023-05-13T05:10:19.967Z,70.77
2023-05-13T05:12:52.004Z,70.56
2023-05-13T05:15:23.437Z,70.67
2023-05-13T05:17:54.652Z,70.24
2023-05-13T05:20:25.605Z,70.15
2023-05-13T05:22:56.580Z,70.25
2023-05-13T05:25:27.770Z,70.08
2023-05-13T05:27:58.860Z,69.49
2023-05-13T05:30:30.588Z,69.70
2023-05-13T05:33:01.762Z,69.35
2023-05-13T05:35:33.427Z,69.24
2023-05-13T05:38:05.211Z,69.10
2023-05-13T05:40:37.446Z,68.94
2023-05-13T05:43:08.701Z,68.99
2023-05-13T05:45:40.815Z,68.87
2023-05-13T05:48:11.959Z,69.08
2023-05-13T05:50:43.338Z,68.87
2023-05-13T05:53:14.458Z,68.74
2023-05-13T05:55:45.511Z,68.96
2023-05-13T05:58:19.831Z,68.79
2023-05-13T06:00:50.808Z,68.63
2023-05-13T06:03:22.123Z,68.86
2023-05-13T06:05:53.277Z,67.94
2023-05-13T06:08:29.991Z,67.75
2023-05-13T06:11:01.732Z,67.77
2023-05-13T06:13:32.865Z,67.93
2023-05-13T06:16:04.118Z,67.83
2023-05-13T06:18:35.247Z,67.58
2023-05-13T06:21:06.997Z,67.09
2023-05-13T06:23:37.987Z,66.45
2023-05-13T06:26:08.981Z,66.15
2023-05-13T06:28:40.076Z,66.17
2023-05-13T06:31:11.036Z,66.01
2023-05-13T06:33:42.235Z,65.80
2023-05-13T06:36:13.233Z,64.86
2023-05-13T06:38:44.232Z,63.31
2023-05-13T06:41:15.399Z,62.91
2023-05-13T06:43:48.857Z,63.21
2023-05-13T06:46:19.910Z,62.37
2023-05-13T06:48:52.469Z,62.13
2023-05-13T06:51:23.383Z,61.90
2023-05-13T06:53:54.417Z,60.97
2023-05-13T06:56:26.028Z,61.51
2023-05-13T06:58:57.551Z,61.29
2023-05-13T07:01:29.154Z,60.82
2023-05-13T07:04:00.424Z,60.60
2023-05-13T07:06:31.674Z,60.31
2023-05-13T07:09:07.165Z,59.60
2023-05-13T07:11:39.501Z,58.42
2023-05-13T07:14:10.615Z,57.54
2023-05-13T07:16:41.710Z,58.07
2023-05-13T07:19:12.835Z,57.73
2023-05-13T07:21:44.166Z,57.03
2023-05-13T07:24:15.277Z,56.91
2023-05-13T07:26:46.367Z,55.69
2023-05-13T07:29:17.222Z,55.84
2023-05-13T07:31:48.285Z,55.90
2023-05-13T07:34:19.235Z,55.66
2023-05-13T07:36:50.341Z,53.73
2023-05-13T07:39:21.169Z,53.70
2023-05-13T07:41:52.163Z,52.80
2023-05-13T07:44:23.624Z,53.75
2023-05-13T07:46:54.920Z,53.28
2023-05-13T07:49:26.210Z,53.06
2023-05-13T07:51:57.148Z,52.80
2023-05-13T07:54:28.126Z,53.46
2023-05-13T07:56:59.116Z,53.87
2023-05-13T07:59:30.457Z,54.49
2023-05-13T08:02:01.492Z,55.13
2023-05-13T08:04:33.513Z,54.87
2023-05-13T08:07:05.100Z,54.38
2023-05-13T08:09:36.265Z,54.35
2023-05-13T08:12:07.961Z,53.89
2023-05-13T08:14:39.090Z,54.07
2023-05-13T08:17:10.166Z,54.33
2023-05-13T08:19:41.631Z,53.53
2023-05-13T08:22:12.625Z,53.25
2023-05-13T08:24:44.083Z,53.26
2023-05-13T08:27:15.018Z,52.68
2023-05-13T08:29:46.104Z,53.71
2023-05-13T08:32:17.565Z,53.90
2023-05-13T08:34:49.065Z,53.25
2023-05-13T08:37:20.130Z,53.15
2023-05-13T08:39:51.248Z,52.40
2023-05-13T08:42:24.061Z,52.51
2023-05-13T08:44:55.046Z,52.64
2023-05-13T08:47:35.500Z,53.08
2023-05-13T08:50:09.794Z,51.49
2023-05-13T08:52:40.998Z,49.46
2023-05-13T08:55:12.731Z,49.53
2023-05-13T08:57:43.694Z,49.23
2023-05-13T09:00:18.043Z,48.62
2023-05-13T09:03:10.287Z,49.32
2023-05-13T09:05:41.658Z,49.40
2023-05-13T09:08:13.271Z,49.53
2023-05-13T09:10:45.083Z,49.05
2023-05-13T09:13:18.715Z,48.83
2023-05-13T09:15:51.730Z,49.00
2023-05-13T09:18:22.739Z,49.29
2023-05-13T09:20:53.916Z,48.06
2023-05-13T09:23:26.359Z,48.03
2023-05-13T09:25:57.413Z,47.98
2023-05-13T09:28:28.422Z,48.39
2023-05-13T09:30:59.610Z,48.56
2023-05-13T09:33:32.776Z,48.49
2023-05-13T09:36:08.383Z,48.39
2023-05-13T09:38:40.152Z,47.95
2023-05-13T09:41:12.943Z,48.62
2023-05-13T09:43:44.961Z,48.11
2023-05-13T09:46:15.934Z,48.63
2023-05-13T09:48:47.305Z,48.22
2023-05-13T09:51:19.243Z,48.89
2023-05-13T09:53:51.187Z,49.33
2023-05-13T09:56:25.356Z,49.71
2023-05-13T09:58:56.796Z,48.35
2023-05-13T10:01:28.680Z,48.51
2023-05-13T10:04:00.268Z,47.96
2023-05-13T10:06:34.354Z,47.75
2023-05-13T10:09:08.312Z,47.07
2023-05-13T10:11:40.365Z,47.27
2023-05-13T10:14:11.718Z,47.65
2023-05-13T10:16:43.103Z,48.03
2023-05-13T10:19:15.282Z,47.37
2023-05-13T10:21:47.186Z,47.52
2023-05-13T10:24:18.802Z,46.98
2023-05-13T10:26:53.402Z,47.44
2023-05-13T10:29:26.054Z,47.68
2023-05-13T10:31:58.667Z,47.49
2023-05-13T10:34:31.599Z,47.37
2023-05-13T10:37:17.408Z,46.78
2023-05-13T10:40:12.797Z,47.22
2023-05-13T10:42:48.195Z,47.11
2023-05-13T10:45:19.486Z,46.37
2023-05-13T10:47:52.963Z,46.71
2023-05-13T10:50:27.842Z,46.37
2023-05-13T10:53:03.341Z,47.59
2023-05-13T10:55:45.599Z,46.54
2023-05-13T10:58:22.374Z,45.96
2023-05-13T11:00:53.590Z,46.93
2023-05-13T11:03:32.213Z,46.50
2023-05-13T11:06:16.616Z,46.26
2023-05-13T11:08:49.592Z,46.51
2023-05-13T11:11:30.560Z,46.63
2023-05-13T11:14:15.252Z,47.14
2023-05-13T11:16:53.692Z,47.10
2023-05-13T11:19:27.333Z,47.11
2023-05-13T11:22:05.428Z,47.67
2023-05-13T11:24:37.182Z,47.72
2023-05-13T11:27:17.784Z,48.45
2023-05-13T11:29:55.203Z,48.84
2023-05-13T11:32:58.811Z,49.15
2023-05-13T11:35:31.682Z,49.33
2023-05-13T11:38:05.805Z,49.65
2023-05-13T11:40:39.104Z,50.32
2023-05-13T11:43:10.789Z,50.47
2023-05-13T11:45:42.614Z,50.75
2023-05-13T11:48:30.277Z,51.17
2023-05-13T11:51:01.487Z,51.52
2023-05-13T11:53:32.755Z,51.90
2023-05-13T11:56:12.992Z,52.49
2023-05-13T11:58:47.248Z,53.21
2023-05-13T12:01:45.677Z,53.54
2023-05-13T12:04:16.732Z,54.42
2023-05-13T12:06:49.470Z,54.77
2023-05-13T12:09:23.488Z,55.44
2023-05-13T12:12:02.998Z,56.53
2023-05-13T12:14:35.067Z,57.27
2023-05-13T12:17:06.608Z,57.22
2023-05-13T12:19:38.545Z,58.62
2023-05-13T12:22:10.026Z,59.67
2023-05-13T12:24:42.701Z,59.99
2023-05-13T12:27:14.254Z,61.22
2023-05-13T12:29:45.775Z,62.41
2023-05-13T12:32:19.607Z,63.16
2023-05-13T12:34:52.929Z,64.47
2023-05-13T12:37:27.292Z,64.84
2023-05-13T12:42:57.372Z,66.31
2023-05-13T12:45:32.536Z,66.71
2023-05-13T12:48:05.215Z,66.78
2023-05-13T12:50:36.542Z,66.65
2023-05-13T12:53:07.482Z,67.04
2023-05-13T12:55:40.359Z,67.33
2023-05-13T12:58:14.426Z,67.62
2023-05-13T13:00:45.354Z,68.06
2023-05-13T13:03:16.970Z,68.94
2023-05-13T13:05:48.172Z,69.66
2023-05-13T13:08:19.443Z,70.21
2023-05-13T13:10:50.484Z,70.48
2023-05-13T13:13:21.524Z,70.92
2023-05-13T13:15:52.619Z,71.75
2023-05-13T13:18:24.646Z,71.90
2023-05-13T13:20:56.246Z,71.98
2023-05-13T13:23:27.132Z,72.17
2023-05-13T13:25:59.284Z,72.42
2023-05-13T13:28:31.824Z,72.19
2023-05-13T13:31:02.901Z,72.29
2023-05-13T13:33:33.956Z,72.29
2023-05-13T13:36:05.737Z,72.32
2023-05-13T13:38:36.977Z,72.10
2023-05-13T13:41:08.228Z,72.07
2023-05-13T13:43:39.638Z,72.58
2023-05-13T13:46:11.101Z,72.84
2023-05-13T13:48:42.178Z,72.50
2023-05-13T13:51:13.257Z,72.66
2023-05-13T13:53:44.251Z,73.14
2023-05-13T13:56:15.438Z,73.22
2023-05-13T13:58:46.497Z,73.27
2023-05-13T14:01:19.746Z,73.00
2023-05-13T14:03:52.256Z,73.07
2023-05-13T14:06:23.236Z,73.02
2023-05-13T14:08:54.701Z,73.12
2023-05-13T14:11:25.726Z,73.25
2023-05-13T14:13:56.729Z,73.45
2023-05-13T14:16:28.084Z,73.54
2023-05-13T14:18:59.491Z,73.47
2023-05-13T14:21:30.921Z,73.45
2023-05-13T14:24:02.195Z,73.20
2023-05-13T14:26:33.700Z,73.36
2023-05-13T14:29:04.709Z,73.38
2023-05-13T14:31:36.035Z,72.79
2023-05-13T14:34:08.114Z,72.48
2023-05-13T14:36:39.320Z,71.93
2023-05-13T14:39:10.917Z,70.08
2023-05-13T14:41:42.635Z,69.35
2023-05-13T14:44:14.193Z,68.25
2023-05-13T14:46:45.498Z,67.59
2023-05-13T14:49:16.683Z,65.86
2023-05-13T14:51:47.806Z,66.30
2023-05-13T14:54:18.864Z,66.33
2023-05-13T14:56:50.020Z,64.96
2023-05-13T14:59:21.149Z,63.28
2023-05-13T15:01:52.434Z,63.08
2023-05-13T15:04:23.550Z,61.11
2023-05-13T15:06:55.665Z,61.02
2023-05-13T15:09:26.803Z,60.43
2023-05-13T15:11:58.053Z,60.72
2023-05-13T15:14:29.180Z,60.18
2023-05-13T15:17:00.401Z,59.69
2023-05-13T15:19:32.050Z,59.68
2023-05-13T15:22:03.076Z,60.16
2023-05-13T15:24:34.742Z,58.90
2023-05-13T15:27:06.014Z,58.65
2023-05-13T15:29:37.080Z,59.52
2023-05-13T15:32:09.699Z,59.00
2023-05-13T15:34:40.670Z,58.59
2023-05-13T15:37:11.553Z,58.66
2023-05-13T15:39:42.522Z,58.84
2023-05-13T15:42:14.496Z,58.51
2023-05-13T15:44:46.600Z,58.24
2023-05-13T15:47:18.007Z,57.97
2023-05-13T15:49:50.777Z,57.71
2023-05-13T15:52:21.923Z,58.66
2023-05-13T15:54:53.086Z,58.62
2023-05-13T15:57:24.102Z,58.23
2023-05-13T15:59:55.681Z,56.97
2023-05-13T16:02:29.679Z,56.86
2023-05-13T16:05:02.393Z,56.50
2023-05-13T16:07:33.902Z,56.97
2023-05-13T16:10:05.565Z,58.01
2023-05-13T16:12:36.995Z,57.60
2023-05-13T16:15:09.569Z,58.25
2023-05-13T16:17:40.734Z,57.89
2023-05-13T16:20:13.351Z,57.51
2023-05-13T16:22:44.447Z,57.22
2023-05-13T16:25:15.504Z,57.55
2023-05-13T16:27:47.282Z,57.32
2023-05-13T16:30:18.688Z,58.06
2023-05-13T16:32:53.430Z,59.00
2023-05-13T16:35:25.192Z,58.01
2023-05-13T16:37:56.484Z,57.47
2023-05-13T16:40:27.990Z,58.03
2023-05-13T16:43:01.687Z,59.19
2023-05-13T16:45:34.486Z,59.89
2023-05-13T16:48:05.815Z,58.74
2023-05-13T16:50:37.330Z,59.02
2023-05-13T16:53:08.577Z,59.28
2023-05-13T16:55:39.743Z,59.12
2023-05-13T16:58:11.079Z,59.51
2023-05-13T17:00:42.107Z,59.80
2023-05-13T17:03:13.895Z,60.03
2023-05-13T17:05:45.158Z,60.58
2023-05-13T17:08:17.592Z,60.61
2023-05-13T17:10:48.461Z,61.23
2023-05-13T17:13:20.351Z,61.45
2023-05-13T17:15:51.443Z,61.50
2023-05-13T17:18:22.535Z,62.09
2023-05-13T17:20:54.986Z,61.93
2023-05-13T17:23:26.480Z,62.02
2023-05-13T17:25:57.656Z,62.59
2023-05-13T17:28:28.759Z,62.67
2023-05-13T17:30:59.841Z,62.73
2023-05-13T17:33:31.059Z,63.35
2023-05-13T17:36:02.161Z,63.01
2023-05-13T17:38:33.635Z,63.66
2023-05-13T17:41:05.218Z,63.49
2023-05-13T17:43:36.406Z,63.60
2023-05-13T17:46:07.705Z,63.58
2023-05-13T17:48:38.946Z,64.08
2023-05-13T17:51:10.083Z,64.05
2023-05-13T17:53:41.064Z,64.21
2023-05-13T17:56:12.020Z,64.51
2023-05-13T17:58:42.914Z,64.78
2023-05-13T18:01:14.072Z,64.68
2023-05-13T18:03:45.328Z,65.16
2023-05-13T18:06:16.395Z,65.18
2023-05-13T18:08:47.425Z,65.34
2023-05-13T18:11:18.448Z,65.41
2023-05-13T18:13:49.426Z,65.57
2023-05-13T18:16:20.711Z,65.82
2023-05-13T18:18:51.955Z,65.75
2023-05-13T18:21:24.221Z,65.92
2023-05-13T18:23:55.226Z,65.82
2023-05-13T18:26:26.690Z,65.69
2023-05-13T18:28:57.743Z,65.72
2023-05-13T18:31:28.964Z,65.35
2023-05-13T18:33:59.908Z,65.37
2023-05-13T18:36:31.193Z,65.39
2023-05-13T18:39:02.111Z,65.85
2023-05-13T18:41:33.047Z,66.37
2023-05-13T18:44:04.052Z,66.02
2023-05-13T18:46:35.306Z,66.52
2023-05-13T18:49:06.412Z,66.73
2023-05-13T18:51:37.603Z,67.02
2023-05-13T18:54:09.118Z,66.96
2023-05-13T18:56:41.149Z,67.10
2023-05-13T18:59:12.258Z,67.71
2023-05-13T19:01:43.527Z,67.53
2023-05-13T19:04:15.316Z,67.82
2023-05-13T19:06:46.537Z,67.97
2023-05-13T19:09:17.636Z,68.06
2023-05-13T19:11:48.687Z,67.99
2023-05-13T19:14:19.892Z,68.01
2023-05-13T19:16:50.956Z,68.23
2023-05-13T19:19:21.970Z,68.35
2023-05-13T19:21:53.004Z,68.12
2023-05-13T19:24:23.980Z,68.15
2023-05-13T19:26:55.095Z,68.58
2023-05-13T19:29:26.025Z,68.59
2023-05-13T19:31:57.145Z,68.90
2023-05-13T19:34:28.058Z,69.01
2023-05-13T19:36:59.508Z,69.75
2023-05-13T19:39:30.763Z,69.75
2023-05-13T19:42:01.636Z,69.93
2023-05-13T19:44:34.097Z,69.96
2023-05-13T19:47:08.490Z,70.10
2023-05-13T19:49:40.132Z,70.09
2023-05-13T19:52:11.531Z,70.10
2023-05-13T19:54:42.906Z,70.42
2023-05-13T19:57:13.774Z,71.16
2023-05-13T19:59:45.178Z,71.42
2023-05-13T20:02:16.075Z,71.80
2023-05-13T20:04:47.325Z,71.79
2023-05-13T20:07:18.589Z,71.65
2023-05-13T20:09:49.669Z,71.74
2023-05-13T20:12:19.249Z,71.91
2023-05-13T20:14:51.906Z,72.16
2023-05-13T20:17:23.891Z,72.29
2023-05-13T20:19:55.985Z,72.57
2023-05-13T20:22:27.669Z,73.10
2023-05-13T20:24:59.037Z,73.28
2023-05-13T20:27:30.044Z,73.18
2023-05-13T20:30:02.190Z,73.17
2023-05-13T20:32:33.783Z,73.20
2023-05-13T20:35:05.146Z,73.24
2023-05-13T20:37:36.529Z,73.26
2023-05-13T20:40:09.397Z,73.25
2023-05-13T20:42:40.380Z,73.33
2023-05-13T20:45:13.294Z,73.43
2023-05-13T20:47:44.230Z,73.53
2023-05-13T20:50:16.204Z,73.59
2023-05-13T20:52:47.400Z,73.74
2023-05-13T20:55:18.394Z,73.79
2023-05-13T20:57:51.129Z,73.76
2023-05-13T21:00:23.056Z,73.83
2023-05-13T21:02:54.425Z,73.95
2023-05-13T21:05:25.545Z,74.05
2023-05-13T21:07:56.672Z,74.20
2023-05-13T21:10:27.786Z,74.34
2023-05-13T21:12:58.689Z,74.37
2023-05-13T21:15:29.976Z,74.37
2023-05-13T21:18:01.062Z,74.54
2023-05-13T21:20:32.801Z,74.55
2023-05-13T21:23:04.049Z,74.57
2023-05-13T21:25:34.972Z,74.64
2023-05-13T21:28:06.691Z,74.77
2023-05-13T21:30:37.573Z,74.86
2023-05-13T21:33:08.738Z,74.87
2023-05-13T21:35:39.592Z,74.93
2023-05-13T21:38:12.362Z,74.91
2023-05-13T21:40:43.820Z,75.03
2023-05-13T21:43:14.933Z,75.18
2023-05-13T21:45:47.508Z,75.22
2023-05-13T21:48:19.377Z,75.23
2023-05-13T21:50:52.884Z,75.21
2023-05-13T21:53:23.996Z,75.33
2023-05-13T21:55:56.780Z,75.41
2023-05-13T21:58:28.234Z,75.48
2023-05-13T22:01:00.388Z,75.60
2023-05-13T22:03:32.059Z,75.67
2023-05-13T22:06:03.477Z,75.81
2023-05-13T22:08:35.522Z,75.95
2023-05-13T22:11:07.333Z,76.07
2023-05-13T22:13:38.265Z,76.19
2023-05-13T22:16:08.352Z,76.28
2023-05-13T22:18:39.995Z,76.45
2023-05-13T22:21:11.224Z,76.40
2023-05-13T22:23:42.113Z,76.29
2023-05-13T22:26:13.182Z,76.27
2023-05-13T22:28:46.757Z,76.42
2023-05-13T22:31:18.199Z,76.37
2023-05-13T22:33:49.618Z,76.32
2023-05-13T22:36:20.706Z,76.32
2023-05-13T22:38:51.936Z,76.38
2023-05-13T22:41:23.855Z,76.26
2023-05-13T22:43:55.127Z,76.32
2023-05-13T22:46:26.195Z,76.40
2023-05-13T22:48:57.260Z,76.38
2023-05-13T22:51:26.481Z,76.34
2023-05-13T22:53:57.329Z,76.34
2023-05-13T22:56:29.667Z,76.32
2023-05-13T22:59:00.594Z,76.27
2023-05-13T23:01:31.791Z,76.42
2023-05-13T23:04:03.307Z,76.51
2023-05-13T23:06:34.297Z,76.58
2023-05-13T23:09:05.804Z,76.61
2023-05-13T23:11:38.014Z,76.80
2023-05-13T23:14:09.420Z,76.87
2023-05-13T23:16:40.917Z,76.78
2023-05-13T23:19:13.866Z,76.88
2023-05-13T23:21:45.042Z,76.95
2023-05-13T23:24:16.143Z,77.17
2023-05-13T23:26:47.526Z,77.22
2023-05-13T23:29:18.617Z,77.27
2023-05-13T23:31:48.426Z,77.35
2023-05-13T23:34:19.491Z,77.31
2023-05-13T23:36:50.769Z,77.37
2023-05-13T23:39:21.775Z,77.55
2023-05-13T23:41:51.576Z,77.59
2023-05-13T23:44:22.656Z,77.77
2023-05-13T23:46:53.974Z,77.83
2023-05-13T23:49:23.250Z,77.86
2023-05-13T23:51:54.349Z,77.99
2023-05-13T23:54:25.438Z,78.05
2023-05-13T23:56:56.233Z,77.90
2023-05-13T23:59:25.629Z,77.89
